sensor_id;sensor_type;location;lat;lon;timestamp;temperature;humidity
42095;DHT22;27753;55.724;37.612;2023-08-07T00:01:57;24.70;80.90
42095;DHT22;27753;55.724;37.612;2023-08-07T00:04:23;24.70;81.00
42095;DHT22;27753;55.724;37.612;2023-08-07T00:06:50;24.60;81.50
42095;DHT22;27753;55.724;37.612;2023-08-07T00:09:16;24.60;81.00
42095;DHT22;27753;55.724;37.612;2023-08-07T00:11:42;24.60;81.10
42095;DHT22;27753;55.724;37.612;2023-08-07T00:14:07;24.60;81.40
42095;DHT22;27753;55.724;37.612;2023-08-07T00:16:33;24.50;81.60
42095;DHT22;27753;55.724;37.612;2023-08-07T00:18:59;24.50;81.90
42095;DHT22;27753;55.724;37.612;2023-08-07T00:21:25;24.50;82.10
42095;DHT22;27753;55.724;37.612;2023-08-07T00:23:51;24.50;82.60
42095;DHT22;27753;55.724;37.612;2023-08-07T00:26:17;24.40;82.70
42095;DHT22;27753;55.724;37.612;2023-08-07T00:28:43;24.40;82.70
42095;DHT22;27753;55.724;37.612;2023-08-07T00:31:09;24.30;82.80
42095;DHT22;27753;55.724;37.612;2023-08-07T00:33:35;24.30;83.00
42095;DHT22;27753;55.724;37.612;2023-08-07T00:36:01;24.30;82.90
42095;DHT22;27753;55.724;37.612;2023-08-07T00:38:27;24.30;83.00
42095;DHT22;27753;55.724;37.612;2023-08-07T00:40:53;24.30;82.90
42095;DHT22;27753;55.724;37.612;2023-08-07T00:43:19;24.20;82.80
42095;DHT22;27753;55.724;37.612;2023-08-07T00:45:46;24.30;82.90
42095;DHT22;27753;55.724;37.612;2023-08-07T00:48:14;24.20;83.00
42095;DHT22;27753;55.724;37.612;2023-08-07T00:50:42;24.20;83.00
42095;DHT22;27753;55.724;37.612;2023-08-07T00:53:10;24.20;83.30
42095;DHT22;27753;55.724;37.612;2023-08-07T00:55:36;24.20;82.90
42095;DHT22;27753;55.724;37.612;2023-08-07T00:58:02;24.20;82.70
42095;DHT22;27753;55.724;37.612;2023-08-07T01:00:29;24.20;82.90
42095;DHT22;27753;55.724;37.612;2023-08-07T01:02:56;24.20;82.80
42095;DHT22;27753;55.724;37.612;2023-08-07T01:05:24;24.20;82.80
42095;DHT22;27753;55.724;37.612;2023-08-07T01:07:50;24.20;82.90
42095;DHT22;27753;55.724;37.612;2023-08-07T01:14:00;24.10;82.70
42095;DHT22;27753;55.724;37.612;2023-08-07T01:16:03;24.10;82.60
42095;DHT22;27753;55.724;37.612;2023-08-07T01:18:34;24.10;82.80
42095;DHT22;27753;55.724;37.612;2023-08-07T01:21:01;24.00;82.60
42095;DHT22;27753;55.724;37.612;2023-08-07T01:23:28;24.00;82.90
42095;DHT22;27753;55.724;37.612;2023-08-07T01:25:54;24.00;83.00
42095;DHT22;27753;55.724;37.612;2023-08-07T01:28:27;24.00;83.00
42095;DHT22;27753;55.724;37.612;2023-08-07T01:31:00;24.00;83.20
42095;DHT22;27753;55.724;37.612;2023-08-07T01:33:49;24.00;83.10
42095;DHT22;27753;55.724;37.612;2023-08-07T01:36:17;24.00;83.10
42095;DHT22;27753;55.724;37.612;2023-08-07T01:38:43;23.90;83.30
42095;DHT22;27753;55.724;37.612;2023-08-07T01:41:09;23.90;83.30
42095;DHT22;27753;55.724;37.612;2023-08-07T01:43:35;23.90;83.30
42095;DHT22;27753;55.724;37.612;2023-08-07T01:46:01;23.90;83.60
42095;DHT22;27753;55.724;37.612;2023-08-07T01:48:28;23.80;83.70
42095;DHT22;27753;55.724;37.612;2023-08-07T01:50:54;23.80;84.00
42095;DHT22;27753;55.724;37.612;2023-08-07T01:53:21;23.80;84.10
42095;DHT22;27753;55.724;37.612;2023-08-07T01:55:46;23.80;84.00
42095;DHT22;27753;55.724;37.612;2023-08-07T01:58:12;23.70;84.10
42095;DHT22;27753;55.724;37.612;2023-08-07T02:00:38;23.70;84.20
42095;DHT22;27753;55.724;37.612;2023-08-07T02:03:04;23.70;84.70
42095;DHT22;27753;55.724;37.612;2023-08-07T02:05:30;23.70;84.60
42095;DHT22;27753;55.724;37.612;2023-08-07T02:07:55;23.70;85.00
42095;DHT22;27753;55.724;37.612;2023-08-07T02:10:22;23.70;85.20
42095;DHT22;27753;55.724;37.612;2023-08-07T02:12:49;23.70;85.50
42095;DHT22;27753;55.724;37.612;2023-08-07T02:15:16;23.60;85.30
42095;DHT22;27753;55.724;37.612;2023-08-07T02:17:42;23.70;84.70
42095;DHT22;27753;55.724;37.612;2023-08-07T02:20:08;23.60;85.20
42095;DHT22;27753;55.724;37.612;2023-08-07T02:22:34;23.70;85.50
42095;DHT22;27753;55.724;37.612;2023-08-07T02:25:00;23.60;85.60
42095;DHT22;27753;55.724;37.612;2023-08-07T02:27:26;23.70;85.60
42095;DHT22;27753;55.724;37.612;2023-08-07T02:29:52;23.70;85.80
42095;DHT22;27753;55.724;37.612;2023-08-07T02:32:18;23.70;85.20
42095;DHT22;27753;55.724;37.612;2023-08-07T02:34:45;23.80;85.00
42095;DHT22;27753;55.724;37.612;2023-08-07T02:37:11;23.80;84.50
42095;DHT22;27753;55.724;37.612;2023-08-07T02:39:36;23.90;84.30
42095;DHT22;27753;55.724;37.612;2023-08-07T02:42:02;23.90;84.20
42095;DHT22;27753;55.724;37.612;2023-08-07T02:44:28;24.00;84.30
42095;DHT22;27753;55.724;37.612;2023-08-07T02:46:54;24.00;84.20
42095;DHT22;27753;55.724;37.612;2023-08-07T02:49:20;24.10;83.60
42095;DHT22;27753;55.724;37.612;2023-08-07T02:51:46;24.20;83.30
42095;DHT22;27753;55.724;37.612;2023-08-07T02:54:12;24.30;83.30
42095;DHT22;27753;55.724;37.612;2023-08-07T02:56:37;24.30;82.90
42095;DHT22;27753;55.724;37.612;2023-08-07T02:59:03;24.40;82.30
42095;DHT22;27753;55.724;37.612;2023-08-07T03:01:30;24.40;82.40
42095;DHT22;27753;55.724;37.612;2023-08-07T03:03:56;24.50;82.20
42095;DHT22;27753;55.724;37.612;2023-08-07T03:06:21;24.50;82.20
42095;DHT22;27753;55.724;37.612;2023-08-07T03:08:47;24.50;81.80
42095;DHT22;27753;55.724;37.612;2023-08-07T03:11:13;24.60;81.50
42095;DHT22;27753;55.724;37.612;2023-08-07T03:13:39;24.60;81.40
42095;DHT22;27753;55.724;37.612;2023-08-07T03:16:07;24.60;81.10
42095;DHT22;27753;55.724;37.612;2023-08-07T03:18:33;24.70;81.00
42095;DHT22;27753;55.724;37.612;2023-08-07T03:20:59;24.80;80.70
42095;DHT22;27753;55.724;37.612;2023-08-07T03:23:26;24.80;80.80
42095;DHT22;27753;55.724;37.612;2023-08-07T03:26:04;24.80;80.30
42095;DHT22;27753;55.724;37.612;2023-08-07T03:28:31;24.90;80.20
42095;DHT22;27753;55.724;37.612;2023-08-07T03:30:57;24.90;80.00
42095;DHT22;27753;55.724;37.612;2023-08-07T03:33:23;25.00;79.60
42095;DHT22;27753;55.724;37.612;2023-08-07T03:35:49;25.00;79.60
42095;DHT22;27753;55.724;37.612;2023-08-07T03:38:15;25.10;79.50
42095;DHT22;27753;55.724;37.612;2023-08-07T03:40:41;25.10;79.20
42095;DHT22;27753;55.724;37.612;2023-08-07T03:43:07;25.20;79.20
42095;DHT22;27753;55.724;37.612;2023-08-07T03:45:33;25.30;78.50
42095;DHT22;27753;55.724;37.612;2023-08-07T03:47:58;25.40;78.10
42095;DHT22;27753;55.724;37.612;2023-08-07T03:50:27;25.40;77.90
42095;DHT22;27753;55.724;37.612;2023-08-07T03:52:53;25.40;77.80
42095;DHT22;27753;55.724;37.612;2023-08-07T03:55:19;25.40;77.80
42095;DHT22;27753;55.724;37.612;2023-08-07T03:57:45;25.40;77.50
42095;DHT22;27753;55.724;37.612;2023-08-07T04:00:11;25.40;77.30
42095;DHT22;27753;55.724;37.612;2023-08-07T04:02:38;25.50;77.20
42095;DHT22;27753;55.724;37.612;2023-08-07T04:05:04;25.50;76.70
42095;DHT22;27753;55.724;37.612;2023-08-07T04:07:30;25.50;76.70
42095;DHT22;27753;55.724;37.612;2023-08-07T04:09:56;25.60;76.50
42095;DHT22;27753;55.724;37.612;2023-08-07T04:12:22;25.50;76.40
42095;DHT22;27753;55.724;37.612;2023-08-07T04:14:48;25.50;76.50
42095;DHT22;27753;55.724;37.612;2023-08-07T04:17:15;25.60;76.50
42095;DHT22;27753;55.724;37.612;2023-08-07T04:19:41;25.60;76.30
42095;DHT22;27753;55.724;37.612;2023-08-07T04:22:07;25.70;76.00
42095;DHT22;27753;55.724;37.612;2023-08-07T04:24:33;25.70;76.10
42095;DHT22;27753;55.724;37.612;2023-08-07T04:26:59;25.70;75.80
42095;DHT22;27753;55.724;37.612;2023-08-07T04:29:25;25.70;76.40
42095;DHT22;27753;55.724;37.612;2023-08-07T04:31:51;25.80;75.80
42095;DHT22;27753;55.724;37.612;2023-08-07T04:34:18;25.80;75.50
42095;DHT22;27753;55.724;37.612;2023-08-07T04:36:44;25.90;76.00
42095;DHT22;27753;55.724;37.612;2023-08-07T04:39:10;25.90;75.30
42095;DHT22;27753;55.724;37.612;2023-08-07T04:41:39;26.00;74.90
42095;DHT22;27753;55.724;37.612;2023-08-07T04:44:12;26.00;74.70
42095;DHT22;27753;55.724;37.612;2023-08-07T04:47:00;26.00;75.20
42095;DHT22;27753;55.724;37.612;2023-08-07T04:49:38;26.10;75.10
42095;DHT22;27753;55.724;37.612;2023-08-07T04:52:04;26.20;75.10
42095;DHT22;27753;55.724;37.612;2023-08-07T04:54:33;26.20;74.50
42095;DHT22;27753;55.724;37.612;2023-08-07T04:57:12;26.40;74.30
42095;DHT22;27753;55.724;37.612;2023-08-07T04:59:39;27.10;72.80
42095;DHT22;27753;55.724;37.612;2023-08-07T05:02:08;28.00;71.20
42095;DHT22;27753;55.724;37.612;2023-08-07T05:04:34;28.90;67.60
42095;DHT22;27753;55.724;37.612;2023-08-07T05:07:00;29.80;65.20
42095;DHT22;27753;55.724;37.612;2023-08-07T05:09:29;31.20;61.70
42095;DHT22;27753;55.724;37.612;2023-08-07T05:11:56;31.30;60.60
42095;DHT22;27753;55.724;37.612;2023-08-07T05:14:25;31.80;59.00
42095;DHT22;27753;55.724;37.612;2023-08-07T05:16:54;32.10;57.60
42095;DHT22;27753;55.724;37.612;2023-08-07T05:19:22;32.50;56.90
42095;DHT22;27753;55.724;37.612;2023-08-07T05:21:49;33.20;55.90
42095;DHT22;27753;55.724;37.612;2023-08-07T05:24:17;33.90;54.30
42095;DHT22;27753;55.724;37.612;2023-08-07T05:26:43;34.40;53.20
42095;DHT22;27753;55.724;37.612;2023-08-07T05:29:09;35.00;52.20
42095;DHT22;27753;55.724;37.612;2023-08-07T05:31:35;35.30;51.30
42095;DHT22;27753;55.724;37.612;2023-08-07T05:34:02;35.50;50.10
42095;DHT22;27753;55.724;37.612;2023-08-07T05:36:28;35.70;49.50
42095;DHT22;27753;55.724;37.612;2023-08-07T05:38:55;36.10;49.40
42095;DHT22;27753;55.724;37.612;2023-08-07T05:41:21;36.50;48.40
42095;DHT22;27753;55.724;37.612;2023-08-07T05:48:41;36.50;48.30
42095;DHT22;27753;55.724;37.612;2023-08-07T05:51:07;37.70;47.20
42095;DHT22;27753;55.724;37.612;2023-08-07T05:53:36;38.00;46.50
42095;DHT22;27753;55.724;37.612;2023-08-07T05:56:03;38.40;45.80
42095;DHT22;27753;55.724;37.612;2023-08-07T05:58:29;39.00;44.80
42095;DHT22;27753;55.724;37.612;2023-08-07T06:00:57;39.90;44.10
42095;DHT22;27753;55.724;37.612;2023-08-07T06:03:24;40.50;42.90
42095;DHT22;27753;55.724;37.612;2023-08-07T06:05:50;40.70;42.30
42095;DHT22;27753;55.724;37.612;2023-08-07T06:08:16;40.30;42.70
42095;DHT22;27753;55.724;37.612;2023-08-07T06:10:41;39.60;43.50
42095;DHT22;27753;55.724;37.612;2023-08-07T06:13:07;39.60;44.60
42095;DHT22;27753;55.724;37.612;2023-08-07T06:15:35;40.30;44.40
42095;DHT22;27753;55.724;37.612;2023-08-07T06:18:01;41.10;41.90
42095;DHT22;27753;55.724;37.612;2023-08-07T06:20:27;41.80;40.90
42095;DHT22;27753;55.724;37.612;2023-08-07T06:22:53;42.50;40.30
42095;DHT22;27753;55.724;37.612;2023-08-07T06:25:19;42.90;39.10
42095;DHT22;27753;55.724;37.612;2023-08-07T06:27:45;42.80;39.30
42095;DHT22;27753;55.724;37.612;2023-08-07T06:30:11;43.10;38.80
42095;DHT22;27753;55.724;37.612;2023-08-07T06:32:39;43.50;38.20
42095;DHT22;27753;55.724;37.612;2023-08-07T06:35:05;43.40;37.80
42095;DHT22;27753;55.724;37.612;2023-08-07T06:37:31;43.50;38.50
42095;DHT22;27753;55.724;37.612;2023-08-07T06:39:57;43.00;37.60
42095;DHT22;27753;55.724;37.612;2023-08-07T06:42:23;43.10;37.90
42095;DHT22;27753;55.724;37.612;2023-08-07T06:44:49;43.50;37.60
42095;DHT22;27753;55.724;37.612;2023-08-07T06:47:15;43.60;38.20
42095;DHT22;27753;55.724;37.612;2023-08-07T06:49:41;43.60;37.00
42095;DHT22;27753;55.724;37.612;2023-08-07T06:52:07;43.60;37.50
42095;DHT22;27753;55.724;37.612;2023-08-07T06:54:32;43.40;37.30
42095;DHT22;27753;55.724;37.612;2023-08-07T06:56:58;43.40;37.60
42095;DHT22;27753;55.724;37.612;2023-08-07T06:59:24;43.60;36.70
42095;DHT22;27753;55.724;37.612;2023-08-07T07:01:50;43.70;36.90
42095;DHT22;27753;55.724;37.612;2023-08-07T07:04:16;43.40;36.40
42095;DHT22;27753;55.724;37.612;2023-08-07T07:06:43;43.40;35.80
42095;DHT22;27753;55.724;37.612;2023-08-07T07:09:09;43.20;36.00
42095;DHT22;27753;55.724;37.612;2023-08-07T07:11:35;43.50;36.00
42095;DHT22;27753;55.724;37.612;2023-08-07T07:14:01;43.90;35.70
42095;DHT22;27753;55.724;37.612;2023-08-07T07:16:27;44.30;35.50
42095;DHT22;27753;55.724;37.612;2023-08-07T07:18:54;44.80;35.20
42095;DHT22;27753;55.724;37.612;2023-08-07T07:21:21;44.80;34.90
42095;DHT22;27753;55.724;37.612;2023-08-07T07:23:47;45.20;35.50
42095;DHT22;27753;55.724;37.612;2023-08-07T07:26:13;45.50;34.40
42095;DHT22;27753;55.724;37.612;2023-08-07T07:28:39;45.60;34.30
42095;DHT22;27753;55.724;37.612;2023-08-07T07:31:05;45.70;34.10
42095;DHT22;27753;55.724;37.612;2023-08-07T07:33:31;46.00;34.10
42095;DHT22;27753;55.724;37.612;2023-08-07T07:35:57;46.10;33.90
42095;DHT22;27753;55.724;37.612;2023-08-07T07:38:23;46.30;33.60
42095;DHT22;27753;55.724;37.612;2023-08-07T07:40:49;46.80;33.40
42095;DHT22;27753;55.724;37.612;2023-08-07T07:43:16;47.00;32.90
42095;DHT22;27753;55.724;37.612;2023-08-07T07:45:45;46.10;33.60
42095;DHT22;27753;55.724;37.612;2023-08-07T07:48:13;46.10;33.50
42095;DHT22;27753;55.724;37.612;2023-08-07T07:50:44;46.20;33.60
42095;DHT22;27753;55.724;37.612;2023-08-07T07:53:19;46.50;33.30
42095;DHT22;27753;55.724;37.612;2023-08-07T07:55:47;46.80;33.00
42095;DHT22;27753;55.724;37.612;2023-08-07T07:58:13;47.10;33.20
42095;DHT22;27753;55.724;37.612;2023-08-07T08:00:39;47.40;32.60
42095;DHT22;27753;55.724;37.612;2023-08-07T08:03:08;47.80;32.40
42095;DHT22;27753;55.724;37.612;2023-08-07T08:05:38;47.60;32.10
42095;DHT22;27753;55.724;37.612;2023-08-07T08:08:05;47.50;32.40
42095;DHT22;27753;55.724;37.612;2023-08-07T08:10:31;47.40;32.00
42095;DHT22;27753;55.724;37.612;2023-08-07T08:13:00;47.50;32.30
42095;DHT22;27753;55.724;37.612;2023-08-07T08:15:31;47.70;32.00
42095;DHT22;27753;55.724;37.612;2023-08-07T08:18:19;47.00;32.40
42095;DHT22;27753;55.724;37.612;2023-08-07T08:20:47;47.40;32.50
42095;DHT22;27753;55.724;37.612;2023-08-07T08:23:15;47.80;32.30
42095;DHT22;27753;55.724;37.612;2023-08-07T08:30:34;48.10;32.10
42095;DHT22;27753;55.724;37.612;2023-08-07T08:33:02;48.20;32.30
42095;DHT22;27753;55.724;37.612;2023-08-07T08:35:31;48.20;31.60
42095;DHT22;27753;55.724;37.612;2023-08-07T08:37:57;48.10;31.70
42095;DHT22;27753;55.724;37.612;2023-08-07T08:40:29;48.10;31.60
42095;DHT22;27753;55.724;37.612;2023-08-07T08:43:13;48.00;32.20
42095;DHT22;27753;55.724;37.612;2023-08-07T08:45:50;48.00;31.60
42095;DHT22;27753;55.724;37.612;2023-08-07T08:48:19;48.00;31.80
42095;DHT22;27753;55.724;37.612;2023-08-07T08:51:08;48.30;31.70
42095;DHT22;27753;55.724;37.612;2023-08-07T08:53:37;48.40;31.90
42095;DHT22;27753;55.724;37.612;2023-08-07T08:56:04;48.70;31.20
42095;DHT22;27753;55.724;37.612;2023-08-07T08:58:33;49.10;31.10
42095;DHT22;27753;55.724;37.612;2023-08-07T09:01:00;49.30;30.90
42095;DHT22;27753;55.724;37.612;2023-08-07T09:03:28;48.60;30.70
42095;DHT22;27753;55.724;37.612;2023-08-07T09:05:58;48.30;30.90
42095;DHT22;27753;55.724;37.612;2023-08-07T09:08:27;48.40;31.10
42095;DHT22;27753;55.724;37.612;2023-08-07T09:10:55;48.30;31.00
42095;DHT22;27753;55.724;37.612;2023-08-07T09:13:33;48.30;31.70
42095;DHT22;27753;55.724;37.612;2023-08-07T09:16:05;48.10;31.00
42095;DHT22;27753;55.724;37.612;2023-08-07T09:18:42;48.00;31.10
42095;DHT22;27753;55.724;37.612;2023-08-07T09:21:11;47.80;31.30
42095;DHT22;27753;55.724;37.612;2023-08-07T09:23:37;47.70;31.10
42095;DHT22;27753;55.724;37.612;2023-08-07T09:26:05;48.00;31.10
42095;DHT22;27753;55.724;37.612;2023-08-07T09:28:32;48.30;30.90
42095;DHT22;27753;55.724;37.612;2023-08-07T09:31:01;48.30;30.70
42095;DHT22;27753;55.724;37.612;2023-08-07T09:33:28;48.20;30.90
42095;DHT22;27753;55.724;37.612;2023-08-07T09:35:58;48.40;31.10
42095;DHT22;27753;55.724;37.612;2023-08-07T09:38:28;48.80;30.80
42095;DHT22;27753;55.724;37.612;2023-08-07T09:41:00;48.80;30.90
42095;DHT22;27753;55.724;37.612;2023-08-07T09:43:28;48.60;30.40
42095;DHT22;27753;55.724;37.612;2023-08-07T09:46:04;46.80;31.30
42095;DHT22;27753;55.724;37.612;2023-08-07T09:48:30;46.20;31.40
42095;DHT22;27753;55.724;37.612;2023-08-07T09:51:00;45.70;32.50
42095;DHT22;27753;55.724;37.612;2023-08-07T09:53:32;45.60;32.70
42095;DHT22;27753;55.724;37.612;2023-08-07T09:56:11;45.80;32.30
42095;DHT22;27753;55.724;37.612;2023-08-07T09:58:47;46.00;32.60
42095;DHT22;27753;55.724;37.612;2023-08-07T10:01:16;45.80;32.50
42095;DHT22;27753;55.724;37.612;2023-08-07T10:03:42;45.90;32.80
42095;DHT22;27753;55.724;37.612;2023-08-07T10:06:08;46.60;32.70
42095;DHT22;27753;55.724;37.612;2023-08-07T10:08:35;47.00;31.90
42095;DHT22;27753;55.724;37.612;2023-08-07T10:11:03;47.00;31.70
42095;DHT22;27753;55.724;37.612;2023-08-07T10:13:30;47.10;32.30
42095;DHT22;27753;55.724;37.612;2023-08-07T10:15:57;47.00;31.60
42095;DHT22;27753;55.724;37.612;2023-08-07T10:18:24;47.20;31.70
42095;DHT22;27753;55.724;37.612;2023-08-07T10:20:50;47.30;31.40
42095;DHT22;27753;55.724;37.612;2023-08-07T10:23:17;47.40;31.40
42095;DHT22;27753;55.724;37.612;2023-08-07T10:25:45;47.40;31.20
42095;DHT22;27753;55.724;37.612;2023-08-07T10:28:14;47.10;31.50
42095;DHT22;27753;55.724;37.612;2023-08-07T10:30:42;46.70;31.60
42095;DHT22;27753;55.724;37.612;2023-08-07T10:33:13;46.50;31.80
42095;DHT22;27753;55.724;37.612;2023-08-07T10:38:12;43.40;33.50
42095;DHT22;27753;55.724;37.612;2023-08-07T10:41:01;41.40;35.00
42095;DHT22;27753;55.724;37.612;2023-08-07T10:43:27;39.70;36.70
42095;DHT22;27753;55.724;37.612;2023-08-07T10:46:05;38.30;38.70
42095;DHT22;27753;55.724;37.612;2023-08-07T10:48:47;37.40;39.90
42095;DHT22;27753;55.724;37.612;2023-08-07T10:51:17;36.00;39.90
42095;DHT22;27753;55.724;37.612;2023-08-07T10:53:48;35.80;42.00
42095;DHT22;27753;55.724;37.612;2023-08-07T10:56:31;35.20;42.10
42095;DHT22;27753;55.724;37.612;2023-08-07T10:58:58;34.40;43.80
42095;DHT22;27753;55.724;37.612;2023-08-07T11:06:24;33.60;44.70
42095;DHT22;27753;55.724;37.612;2023-08-07T11:08:52;33.00;45.80
42095;DHT22;27753;55.724;37.612;2023-08-07T11:11:18;32.80;46.90
42095;DHT22;27753;55.724;37.612;2023-08-07T11:13:47;32.70;46.60
42095;DHT22;27753;55.724;37.612;2023-08-07T11:16:13;32.60;47.20
42095;DHT22;27753;55.724;37.612;2023-08-07T11:18:42;32.50;47.20
42095;DHT22;27753;55.724;37.612;2023-08-07T12:25:37;32.40;47.50
42095;DHT22;27753;55.724;37.612;2023-08-07T12:28:03;31.80;50.30
42095;DHT22;27753;55.724;37.612;2023-08-07T12:30:37;31.80;50.70
42095;DHT22;27753;55.724;37.612;2023-08-07T12:33:08;31.70;51.00
42095;DHT22;27753;55.724;37.612;2023-08-07T12:35:37;31.70;50.90
42095;DHT22;27753;55.724;37.612;2023-08-07T12:43:02;31.80;51.30
42095;DHT22;27753;55.724;37.612;2023-08-07T12:45:29;31.80;50.90
42095;DHT22;27753;55.724;37.612;2023-08-07T12:47:59;31.80;50.70
42095;DHT22;27753;55.724;37.612;2023-08-07T12:50:28;31.80;50.90
42095;DHT22;27753;55.724;37.612;2023-08-07T12:52:57;31.80;50.90
42095;DHT22;27753;55.724;37.612;2023-08-07T12:55:26;31.70;50.30
42095;DHT22;27753;55.724;37.612;2023-08-07T12:57:58;31.70;50.80
42095;DHT22;27753;55.724;37.612;2023-08-07T13:00:24;31.60;50.80
42095;DHT22;27753;55.724;37.612;2023-08-07T13:02:51;31.60;50.90
42095;DHT22;27753;55.724;37.612;2023-08-07T13:05:18;31.60;51.00
42095;DHT22;27753;55.724;37.612;2023-08-07T13:07:44;31.60;50.50
42095;DHT22;27753;55.724;37.612;2023-08-07T13:10:13;31.60;50.80
42095;DHT22;27753;55.724;37.612;2023-08-07T13:12:41;31.50;50.50
42095;DHT22;27753;55.724;37.612;2023-08-07T13:15:09;31.40;51.10
42095;DHT22;27753;55.724;37.612;2023-08-07T13:17:43;31.40;51.30
42095;DHT22;27753;55.724;37.612;2023-08-07T13:20:10;31.40;51.20
42095;DHT22;27753;55.724;37.612;2023-08-07T13:22:43;31.50;50.80
42095;DHT22;27753;55.724;37.612;2023-08-07T13:25:13;31.50;51.50
42095;DHT22;27753;55.724;37.612;2023-08-07T13:28:09;31.40;51.30
42095;DHT22;27753;55.724;37.612;2023-08-07T13:31:38;31.40;51.50
42095;DHT22;27753;55.724;37.612;2023-08-07T13:41:04;31.50;51.50
42095;DHT22;27753;55.724;37.612;2023-08-07T13:47:14;31.40;51.30
42095;DHT22;27753;55.724;37.612;2023-08-07T13:50:10;31.40;51.10
42095;DHT22;27753;55.724;37.612;2023-08-07T13:53:17;31.40;51.50
42095;DHT22;27753;55.724;37.612;2023-08-07T13:56:05;31.40;51.70
42095;DHT22;27753;55.724;37.612;2023-08-07T13:58:42;31.60;51.80
42095;DHT22;27753;55.724;37.612;2023-08-07T14:01:11;32.30;50.70
42095;DHT22;27753;55.724;37.612;2023-08-07T14:03:36;32.90;49.40
42095;DHT22;27753;55.724;37.612;2023-08-07T14:06:03;33.30;48.80
42095;DHT22;27753;55.724;37.612;2023-08-07T14:08:29;33.60;48.50
42095;DHT22;27753;55.724;37.612;2023-08-07T14:10:55;34.10;48.10
42095;DHT22;27753;55.724;37.612;2023-08-07T14:13:21;34.80;47.00
42095;DHT22;27753;55.724;37.612;2023-08-07T14:15:47;35.30;46.10
42095;DHT22;27753;55.724;37.612;2023-08-07T14:18:13;35.70;45.80
42095;DHT22;27753;55.724;37.612;2023-08-07T14:20:40;36.10;44.90
42095;DHT22;27753;55.724;37.612;2023-08-07T14:23:06;36.40;44.90
42095;DHT22;27753;55.724;37.612;2023-08-07T15:11:51;36.50;44.40
42095;DHT22;27753;55.724;37.612;2023-08-07T15:14:17;35.00;45.90
42095;DHT22;27753;55.724;37.612;2023-08-07T15:16:43;34.60;46.40
42095;DHT22;27753;55.724;37.612;2023-08-07T15:19:09;34.00;46.90
42095;DHT22;27753;55.724;37.612;2023-08-07T15:21:35;33.60;48.30
42095;DHT22;27753;55.724;37.612;2023-08-07T15:24:04;33.00;48.40
42095;DHT22;27753;55.724;37.612;2023-08-07T15:26:31;32.50;49.20
42095;DHT22;27753;55.724;37.612;2023-08-07T15:28:57;32.00;49.70
42095;DHT22;27753;55.724;37.612;2023-08-07T15:31:23;31.70;50.50
42095;DHT22;27753;55.724;37.612;2023-08-07T15:33:49;31.40;51.20
42095;DHT22;27753;55.724;37.612;2023-08-07T15:36:21;31.20;51.60
42095;DHT22;27753;55.724;37.612;2023-08-07T15:38:47;31.00;52.00
42095;DHT22;27753;55.724;37.612;2023-08-07T15:41:15;30.80;52.40
42095;DHT22;27753;55.724;37.612;2023-08-07T15:43:44;30.70;52.60
42095;DHT22;27753;55.724;37.612;2023-08-07T15:46:11;30.60;52.80
42095;DHT22;27753;55.724;37.612;2023-08-07T15:48:37;30.50;53.00
42095;DHT22;27753;55.724;37.612;2023-08-07T15:51:03;30.40;53.20
42095;DHT22;27753;55.724;37.612;2023-08-07T15:53:30;30.30;53.50
42095;DHT22;27753;55.724;37.612;2023-08-07T15:55:57;30.20;53.10
42095;DHT22;27753;55.724;37.612;2023-08-07T15:58:23;30.10;53.40
42095;DHT22;27753;55.724;37.612;2023-08-07T16:01:28;30.10;53.60
42095;DHT22;27753;55.724;37.612;2023-08-07T16:03:59;30.00;53.70
42095;DHT22;27753;55.724;37.612;2023-08-07T16:06:26;29.90;53.60
42095;DHT22;27753;55.724;37.612;2023-08-07T16:08:53;29.90;54.00
42095;DHT22;27753;55.724;37.612;2023-08-07T16:11:22;29.80;53.90
42095;DHT22;27753;55.724;37.612;2023-08-07T16:13:48;29.70;54.20
42095;DHT22;27753;55.724;37.612;2023-08-07T16:16:15;29.70;54.30
42095;DHT22;27753;55.724;37.612;2023-08-07T16:18:41;29.70;54.50
42095;DHT22;27753;55.724;37.612;2023-08-07T16:21:07;29.60;54.50
42095;DHT22;27753;55.724;37.612;2023-08-07T16:23:35;29.60;54.60
42095;DHT22;27753;55.724;37.612;2023-08-07T16:26:10;29.50;54.70
42095;DHT22;27753;55.724;37.612;2023-08-07T16:28:50;29.50;55.00
42095;DHT22;27753;55.724;37.612;2023-08-07T16:31:16;29.50;55.00
42095;DHT22;27753;55.724;37.612;2023-08-07T16:33:42;29.40;55.10
42095;DHT22;27753;55.724;37.612;2023-08-07T16:36:08;29.40;55.20
42095;DHT22;27753;55.724;37.612;2023-08-07T16:38:35;29.40;55.40
42095;DHT22;27753;55.724;37.612;2023-08-07T16:41:04;29.30;55.50
42095;DHT22;27753;55.724;37.612;2023-08-07T16:43:33;29.20;55.90
42095;DHT22;27753;55.724;37.612;2023-08-07T16:46:00;29.20;56.20
42095;DHT22;27753;55.724;37.612;2023-08-07T16:48:26;29.20;56.50
42095;DHT22;27753;55.724;37.612;2023-08-07T16:50:55;29.10;56.60
42095;DHT22;27753;55.724;37.612;2023-08-07T16:53:25;29.00;56.80
42095;DHT22;27753;55.724;37.612;2023-08-07T16:55:55;29.00;57.20
42095;DHT22;27753;55.724;37.612;2023-08-07T16:58:22;28.90;56.90
42095;DHT22;27753;55.724;37.612;2023-08-07T17:00:48;28.90;57.20
42095;DHT22;27753;55.724;37.612;2023-08-07T17:03:18;28.80;57.40
42095;DHT22;27753;55.724;37.612;2023-08-07T17:05:47;28.70;57.50
42095;DHT22;27753;55.724;37.612;2023-08-07T17:08:19;28.70;57.70
42095;DHT22;27753;55.724;37.612;2023-08-07T17:10:51;28.60;57.60
42095;DHT22;27753;55.724;37.612;2023-08-07T17:13:18;28.60;57.80
42095;DHT22;27753;55.724;37.612;2023-08-07T17:15:45;28.50;57.80
42095;DHT22;27753;55.724;37.612;2023-08-07T17:18:13;28.50;58.20
42095;DHT22;27753;55.724;37.612;2023-08-07T17:20:39;28.40;58.40
42095;DHT22;27753;55.724;37.612;2023-08-07T17:23:06;28.40;58.40
42095;DHT22;27753;55.724;37.612;2023-08-07T17:25:33;28.30;58.50
42095;DHT22;27753;55.724;37.612;2023-08-07T17:28:02;28.30;58.80
42095;DHT22;27753;55.724;37.612;2023-08-07T17:30:29;28.30;59.00
42095;DHT22;27753;55.724;37.612;2023-08-07T17:32:57;28.20;59.10
42095;DHT22;27753;55.724;37.612;2023-08-07T17:37:57;28.00;58.20
42095;DHT22;27753;55.724;37.612;2023-08-07T17:40:24;28.00;60.00
42095;DHT22;27753;55.724;37.612;2023-08-07T17:42:51;27.90;60.00
42095;DHT22;27753;55.724;37.612;2023-08-07T17:45:20;27.90;60.10
42095;DHT22;27753;55.724;37.612;2023-08-07T17:47:54;27.90;60.40
42095;DHT22;27753;55.724;37.612;2023-08-07T17:50:27;27.80;60.20
42095;DHT22;27753;55.724;37.612;2023-08-07T17:52:55;27.70;60.50